createdAt,value
2022-12-12T00:04:51.785Z,86.30
2022-12-12T00:09:57.092Z,86.61
2022-12-12T00:14:59.500Z,87.23
2022-12-12T00:20:03.577Z,87.12
2022-12-12T00:25:06.341Z,87.59
2022-12-12T00:30:09.519Z,86.94
2022-12-12T00:35:13.644Z,87.22
2022-12-12T00:40:16.260Z,87.17
2022-12-12T00:45:18.870Z,87.73
2022-12-12T00:50:22.707Z,86.61
2022-12-12T00:55:25.500Z,86.85
2022-12-12T01:00:27.945Z,87.40
2022-12-12T01:05:31.755Z,85.34
2022-12-12T01:10:34.456Z,85.29
2022-12-12T01:15:37.173Z,87.74
2022-12-12T01:20:43.964Z,87.54
2022-12-12T01:25:46.412Z,87.50
2022-12-12T01:30:49.051Z,87.80
2022-12-12T01:35:53.390Z,88.28
2022-12-12T01:40:55.984Z,87.98
2022-12-12T01:46:25.876Z,89.04
2022-12-12T01:51:30.657Z,87.79
2022-12-12T01:56:33.651Z,86.94
2022-12-12T02:01:36.437Z,86.81
2022-12-12T02:06:40.464Z,86.16
2022-12-12T02:11:44.548Z,85.55
2022-12-12T02:16:55.289Z,85.49
2022-12-12T02:22:01.982Z,87.83
2022-12-12T02:27:17.172Z,86.08
2022-12-12T02:32:26.336Z,84.15
2022-12-12T02:37:32.515Z,86.17
2022-12-12T02:42:40.945Z,85.03
2022-12-12T02:47:48.080Z,82.34
2022-12-12T02:52:50.548Z,82.48
2022-12-12T02:57:53.575Z,82.82
2022-12-12T03:03:22.790Z,83.01
2022-12-12T03:08:38.694Z,83.75
2022-12-12T03:13:44.522Z,86.16
2022-12-12T03:18:56.880Z,88.54
2022-12-12T03:24:03.834Z,90.29
2022-12-12T03:29:09.403Z,90.47
2022-12-12T03:34:15.875Z,90.67
2022-12-12T03:39:20.701Z,89.86
2022-12-12T03:44:26.497Z,89.79
2022-12-12T03:49:32.598Z,89.19
2022-12-12T03:54:37.991Z,86.70
2022-12-12T03:59:43.170Z,86.80
2022-12-12T04:04:52.438Z,87.45
2022-12-12T04:10:15.626Z,87.37
2022-12-12T04:15:28.865Z,87.78
2022-12-12T04:20:58.466Z,87.32
2022-12-12T04:26:21.616Z,86.85
2022-12-12T04:31:26.392Z,86.25
2022-12-12T04:36:32.498Z,87.18
2022-12-12T04:41:36.176Z,85.75
2022-12-12T04:46:39.350Z,85.26
2022-12-12T04:51:45.491Z,84.96
2022-12-12T04:56:51.579Z,84.48
2022-12-12T05:01:56.410Z,83.96
2022-12-12T05:07:03.718Z,83.04
2022-12-12T05:12:06.465Z,85.84
2022-12-12T05:17:11.764Z,86.98
2022-12-12T05:22:15.537Z,87.97
2022-12-12T05:27:18.151Z,90.29
2022-12-12T05:32:20.730Z,91.15
2022-12-12T05:37:24.744Z,92.02
2022-12-12T05:42:27.170Z,93.72
2022-12-12T05:47:29.637Z,92.19
2022-12-12T05:52:33.612Z,91.73
2022-12-12T05:57:36.074Z,93.68
2022-12-12T06:02:39.174Z,94.62
2022-12-12T06:07:43.068Z,94.60
2022-12-12T06:12:45.574Z,97.00
2022-12-12T06:17:48.215Z,98.24
2022-12-12T06:22:53.840Z,97.19
2022-12-12T06:27:57.947Z,97.72
2022-12-12T06:33:01.622Z,96.14
2022-12-12T06:38:05.480Z,96.08
2022-12-12T06:43:07.959Z,94.71
2022-12-12T06:48:10.458Z,94.98
2022-12-12T06:53:14.472Z,95.70
2022-12-12T06:58:16.910Z,95.97
2022-12-12T07:03:21.400Z,96.93
2022-12-12T07:08:26.643Z,96.39
2022-12-12T07:13:29.113Z,96.48
2022-12-12T07:18:31.803Z,97.15
2022-12-12T07:23:36.266Z,96.76
2022-12-12T07:28:39.225Z,95.55
2022-12-12T07:33:44.357Z,93.02
2022-12-12T07:38:48.891Z,93.39
2022-12-12T07:43:52.282Z,93.69
2022-12-12T07:48:54.873Z,95.89
2022-12-12T07:53:58.679Z,95.59
2022-12-12T07:59:01.185Z,94.89
2022-12-12T08:04:06.899Z,94.90
2022-12-12T08:09:10.726Z,95.36
2022-12-12T08:14:13.548Z,95.28
2022-12-12T08:19:16.054Z,95.34
2022-12-12T08:24:19.813Z,92.31
2022-12-12T08:29:22.740Z,90.16
2022-12-12T08:34:25.285Z,89.07
2022-12-12T08:39:29.191Z,89.21
2022-12-12T08:44:34.503Z,92.75
2022-12-12T08:49:37.154Z,91.53
2022-12-12T08:54:41.021Z,89.59
2022-12-12T08:59:43.493Z,89.63
2022-12-12T09:04:45.930Z,91.67
2022-12-12T09:09:49.925Z,89.78
2022-12-12T09:14:52.366Z,88.79
2022-12-12T09:19:54.788Z,88.17
2022-12-12T09:24:58.575Z,88.18
2022-12-12T09:30:01.022Z,87.28
2022-12-12T09:35:03.465Z,87.63
2022-12-12T09:40:09.242Z,88.39
2022-12-12T09:45:12.171Z,89.26
2022-12-12T09:50:17.919Z,89.05
2022-12-12T09:55:28.291Z,87.18
2022-12-12T10:00:32.655Z,85.65
2022-12-12T10:05:38.058Z,85.19
2022-12-12T10:10:43.477Z,83.13
2022-12-12T10:15:47.510Z,82.52
2022-12-12T10:20:52.121Z,81.27
2022-12-12T10:25:57.722Z,81.54
2022-12-12T10:31:04.328Z,82.21
2022-12-12T10:36:09.886Z,82.32
2022-12-12T10:41:18.364Z,82.32
2022-12-12T10:46:28.526Z,83.95
2022-12-12T10:51:31.934Z,83.47
2022-12-12T10:56:35.742Z,81.97
2022-12-12T11:07:02.469Z,82.86
2022-12-12T11:12:15.359Z,81.50
2022-12-12T11:17:21.100Z,81.31
2022-12-12T11:22:27.423Z,83.20
2022-12-12T11:27:32.534Z,82.24
2022-12-12T11:32:39.525Z,79.27
2022-12-12T11:37:50.527Z,77.79
2022-12-12T11:43:06.631Z,77.50
2022-12-12T11:48:30.769Z,76.05
2022-12-12T11:53:33.761Z,69.55
2022-12-12T11:58:40.446Z,67.17
2022-12-12T12:03:54.012Z,65.33
2022-12-12T12:09:06.302Z,64.52
2022-12-12T12:14:17.680Z,67.05
2022-12-12T12:19:23.271Z,68.76
2022-12-12T12:24:40.753Z,70.92
2022-12-12T12:30:02.008Z,70.19
2022-12-12T12:35:13.036Z,70.05
2022-12-12T12:40:22.528Z,68.38
2022-12-12T12:45:32.239Z,69.97
2022-12-12T12:50:39.332Z,68.25
2022-12-12T12:55:48.400Z,71.26
2022-12-12T13:00:54.634Z,71.75
2022-12-12T13:06:02.355Z,71.77
2022-12-12T13:11:07.815Z,73.04
2022-12-12T13:16:12.637Z,73.42
2022-12-12T13:21:21.494Z,70.01
2022-12-12T13:26:28.854Z,70.05
2022-12-12T13:31:41.522Z,76.78
2022-12-12T13:36:47.328Z,79.98
2022-12-12T13:41:57.232Z,81.73
2022-12-12T13:46:59.710Z,82.65
2022-12-12T13:52:20.796Z,82.71
2022-12-12T13:57:32.699Z,86.83
2022-12-12T14:02:36.844Z,88.19
2022-12-12T14:07:40.201Z,88.31
2022-12-12T14:12:44.513Z,84.91
2022-12-12T14:17:53.324Z,83.52
2022-12-12T14:23:10.489Z,88.28
2022-12-12T14:28:19.031Z,87.67
2022-12-12T14:33:34.766Z,84.74
2022-12-12T14:38:40.325Z,81.55
2022-12-12T14:43:47.635Z,81.39
2022-12-12T14:49:14.061Z,83.81
2022-12-12T14:54:18.457Z,83.04
2022-12-12T14:59:24.421Z,86.29
2022-12-12T15:04:29.215Z,83.84
2022-12-12T15:09:32.388Z,85.04
2022-12-12T15:14:36.348Z,82.60
2022-12-12T15:19:41.586Z,84.74
2022-12-12T15:24:44.712Z,84.79
2022-12-12T15:29:49.706Z,85.22
2022-12-12T15:35:00.467Z,87.62
2022-12-12T15:40:17.549Z,87.39
2022-12-12T15:45:23.456Z,87.17
2022-12-12T15:50:28.113Z,85.71
2022-12-12T15:55:30.878Z,83.68
2022-12-12T16:00:37.465Z,81.62
2022-12-12T16:05:40.126Z,80.14
2022-12-12T16:10:51.586Z,79.52
2022-12-12T16:15:55.359Z,78.81
2022-12-12T16:20:58.157Z,78.12
2022-12-12T16:26:00.679Z,80.05
2022-12-12T16:31:05.288Z,78.85
2022-12-12T16:36:09.142Z,78.26
2022-12-12T16:41:13.616Z,77.47
2022-12-12T16:46:19.131Z,77.14
2022-12-12T16:51:25.667Z,81.72
2022-12-12T16:56:28.224Z,80.81
2022-12-12T17:01:37.178Z,78.33
2022-12-12T17:06:42.798Z,79.00
2022-12-12T17:11:46.332Z,78.77
2022-12-12T17:16:50.582Z,78.15
2022-12-12T17:21:53.170Z,83.09
2022-12-12T17:26:55.752Z,80.69
2022-12-12T17:31:59.561Z,78.56
2022-12-12T17:37:02.524Z,80.74
2022-12-12T17:42:12.932Z,80.08
2022-12-12T17:47:16.984Z,78.27
2022-12-12T17:52:19.635Z,79.84
2022-12-12T17:57:25.463Z,79.83
2022-12-12T18:02:29.468Z,86.40
2022-12-12T18:07:32.361Z,82.35
2022-12-12T18:12:34.906Z,81.57
2022-12-12T18:17:40.674Z,83.57
2022-12-12T18:22:43.143Z,84.42
2022-12-12T18:27:45.865Z,86.74
2022-12-12T18:32:49.716Z,86.33
2022-12-12T18:37:52.193Z,84.80
2022-12-12T18:42:55.100Z,82.43
2022-12-12T18:47:59.209Z,81.68
2022-12-12T18:53:01.690Z,82.40
2022-12-12T18:58:04.334Z,82.09
2022-12-12T19:03:08.379Z,80.10
2022-12-12T19:08:10.872Z,84.06
2022-12-12T19:13:13.366Z,82.18
2022-12-12T19:18:17.484Z,84.09
2022-12-12T19:23:20.307Z,84.13
2022-12-12T19:28:22.821Z,83.87
2022-12-12T19:33:26.931Z,91.64
2022-12-12T19:38:29.778Z,92.89
2022-12-12T19:43:32.555Z,93.04
2022-12-12T19:48:36.706Z,89.81
2022-12-12T19:53:39.723Z,89.04
2022-12-12T19:58:42.549Z,92.50
2022-12-12T20:03:51.313Z,94.37
2022-12-12T20:08:55.603Z,90.73
2022-12-12T20:13:59.842Z,86.13
2022-12-12T20:19:03.736Z,83.45
2022-12-12T20:24:06.784Z,83.97
2022-12-12T20:29:09.862Z,86.03
2022-12-12T20:34:14.478Z,86.35
2022-12-12T20:39:22.504Z,86.00
2022-12-12T20:44:25.698Z,84.45
2022-12-12T20:49:30.276Z,85.10
2022-12-12T20:54:33.264Z,85.84
2022-12-12T20:59:36.101Z,90.52
2022-12-12T21:04:44.208Z,90.68
2022-12-12T21:09:47.084Z,87.40
2022-12-12T21:14:49.742Z,86.63
2022-12-12T21:19:53.644Z,88.88
2022-12-12T21:24:56.323Z,86.83
2022-12-12T21:30:00.989Z,85.40
2022-12-12T21:35:05.353Z,84.17
2022-12-12T21:40:09.007Z,83.09
2022-12-12T21:45:13.439Z,83.05
2022-12-12T21:50:17.721Z,81.31
2022-12-12T21:55:20.234Z,81.34
2022-12-12T22:00:25.825Z,80.44
2022-12-12T22:05:29.863Z,80.16
2022-12-12T22:10:32.453Z,80.72
2022-12-12T22:15:34.993Z,83.80
2022-12-12T22:20:38.838Z,80.81
2022-12-12T22:25:41.473Z,80.67
2022-12-12T22:30:45.075Z,79.87
2022-12-12T22:35:49.169Z,79.72
2022-12-12T22:40:54.224Z,81.89
2022-12-12T22:45:56.849Z,82.75
2022-12-12T22:51:00.719Z,83.00
2022-12-12T22:56:03.218Z,83.55
2022-12-12T23:01:10.118Z,84.06
2022-12-12T23:06:15.025Z,83.00
2022-12-12T23:11:17.759Z,82.02
2022-12-12T23:16:21.349Z,81.57
2022-12-12T23:21:25.808Z,80.33
2022-12-12T23:26:30.230Z,81.47
2022-12-12T23:31:34.158Z,81.51
2022-12-12T23:36:38.220Z,85.41
2022-12-12T23:41:41.022Z,82.91
2022-12-12T23:46:43.850Z,81.71
2022-12-12T23:51:48.839Z,82.14
2022-12-12T23:56:52.026Z,80.75
